Time;durP1;ratioP1;P1;durP2;ratioP2;P2;SDS_P1;SDS_P2;PMS_P1;PMS_P2;Temp;Humidity;BMP_temperature;BMP_pressure;BME280_temperature;BME280_humidity;BME280_pressure;Samples;Min_cycle;Max_cycle;Signal;HPM_P1;HPM_P2
2022/03/10 00:00:45;;;;;;;4.05;2.95;;;;;;;17.34;38.56;102346.09;5123690;28;20031;-55
2022/03/10 00:03:10;;;;;;;3.60;2.70;;;;;;;17.33;38.16;102342.56;5123947;28;20028;-55
2022/03/10 00:05:35;;;;;;;3.67;2.80;;;;;;;17.32;38.55;102337.28;5124072;28;20023;-55
2022/03/10 00:08:00;;;;;;;4.00;2.90;;;;;;;17.28;38.59;102333.97;5124002;28;20039;-55
2022/03/10 00:10:26;;;;;;;3.03;2.72;;;;;;;17.27;38.64;102340.34;5123558;28;20031;-56
2022/03/10 00:12:52;;;;;;;4.03;3.08;;;;;;;17.25;38.46;102342.31;5123512;28;20484;-56
2022/03/10 00:15:20;;;;;;;3.75;2.85;;;;;;;17.23;38.66;102333.50;5123271;28;20039;-57
2022/03/10 00:17:45;;;;;;;3.53;2.95;;;;;;;17.24;38.67;102338.75;5122212;28;20086;-56
2022/03/10 00:20:12;;;;;;;3.55;2.80;;;;;;;17.24;38.65;102344.13;5123721;28;20061;-56
2022/03/10 00:22:44;;;;;;;4.93;3.03;;;;;;;17.23;38.63;102337.03;5123678;28;20046;-55
2022/03/10 00:25:09;;;;;;;2.90;2.45;;;;;;;17.20;38.63;102333.75;5123500;28;20024;-55
2022/03/10 00:27:35;;;;;;;3.22;2.85;;;;;;;17.20;38.61;102341.81;5123178;28;20031;-56
2022/03/10 00:30:00;;;;;;;3.38;2.90;;;;;;;17.16;38.76;102343.91;5123016;28;20057;-56
2022/03/10 00:32:25;;;;;;;3.55;2.78;;;;;;;17.16;38.77;102343.91;5123649;28;20475;-56
2022/03/10 00:34:50;;;;;;;3.38;2.88;;;;;;;17.16;38.66;102351.97;5123577;28;20044;-55
2022/03/10 00:37:16;;;;;;;3.63;2.88;;;;;;;17.15;38.90;102355.63;5123432;28;20019;-55
2022/03/10 00:39:41;;;;;;;3.58;2.78;;;;;;;17.13;38.65;102354.03;5123172;28;20054;-56
2022/03/10 00:42:06;;;;;;;4.28;2.95;;;;;;;17.12;38.78;102347.81;5123540;28;20121;-55
2022/03/10 00:44:32;;;;;;;3.75;3.15;;;;;;;17.07;38.71;102355.38;5122926;28;20027;-57
2022/03/10 00:46:57;;;;;;;3.55;2.88;;;;;;;17.10;38.66;102357.81;5124097;28;20024;-56
2022/03/10 00:49:23;;;;;;;3.80;2.60;;;;;;;17.09;38.67;102353.44;5123136;28;20040;-56
2022/03/10 00:51:50;;;;;;;3.03;2.70;;;;;;;17.09;39.01;102363.31;5123563;28;20091;-57
2022/03/10 00:54:16;;;;;;;3.00;2.70;;;;;;;17.08;38.57;102369.69;5123225;28;20038;-56
2022/03/10 00:56:41;;;;;;;4.28;3.10;;;;;;;17.06;38.70;102363.56;5123910;28;20392;-55
2022/03/10 00:59:06;;;;;;;3.13;2.50;;;;;;;17.04;38.75;102363.69;5126631;28;20502;-56
2022/03/10 01:01:32;;;;;;;3.80;2.80;;;;;;;17.03;38.78;102367.31;5114234;28;20028;-57
2022/03/10 01:03:57;;;;;;;2.60;2.40;;;;;;;17.00;38.84;102372.97;5116102;28;20028;-56
2022/03/10 01:06:22;;;;;;;4.35;3.50;;;;;;;17.00;38.64;102375.66;5127552;28;20034;-56
2022/03/10 01:08:47;;;;;;;3.33;2.80;;;;;;;16.98;38.73;102366.84;5126519;28;20670;-56
2022/03/10 01:11:13;;;;;;;3.22;2.80;;;;;;;16.96;38.78;102366.13;5126848;28;20029;-55
2022/03/10 01:13:38;;;;;;;2.90;2.60;;;;;;;16.96;38.69;102366.13;5125974;28;20030;-55
2022/03/10 01:16:04;;;;;;;3.80;3.10;;;;;;;16.94;38.87;102360.84;5126986;28;20118;-57
2022/03/10 01:18:29;;;;;;;3.63;2.80;;;;;;;16.94;38.84;102357.31;5126322;28;20019;-55
2022/03/10 01:20:54;;;;;;;3.13;2.50;;;;;;;16.93;38.70;102367.19;5126916;28;20047;-56
2022/03/10 01:23:19;;;;;;;3.83;3.42;;;;;;;16.92;38.64;102359.28;5120254;28;20080;-56
2022/03/10 01:25:44;;;;;;;3.83;2.90;;;;;;;16.91;38.55;102362.94;5106150;28;20087;-56
2022/03/10 01:28:10;;;;;;;3.97;3.03;;;;;;;16.88;38.66;102350.59;5105989;28;20035;-56
2022/03/10 01:30:35;;;;;;;4.13;3.60;;;;;;;16.86;38.64;102351.69;5121803;28;20040;-54
2022/03/10 01:33:01;;;;;;;3.17;2.80;;;;;;;16.87;38.66;102356.94;5106757;28;20032;-55
2022/03/10 01:35:26;;;;;;;3.30;2.85;;;;;;;16.85;38.72;102353.50;5106133;28;20056;-54
2022/03/10 01:37:51;;;;;;;3.40;2.50;;;;;;;16.84;38.55;102345.59;5106337;28;20099;-57
2022/03/10 01:40:18;;;;;;;3.22;2.80;;;;;;;16.84;38.76;102350.97;5105782;28;20381;-56
2022/03/10 01:42:44;;;;;;;3.20;2.78;;;;;;;16.83;38.63;102360.84;5105889;28;20122;-55
2022/03/10 01:45:11;;;;;;;3.00;2.75;;;;;;;16.83;38.67;102358.16;5105350;28;20047;-52
2022/03/10 01:47:37;;;;;;;3.28;2.78;;;;;;;16.82;38.63;102360.94;5106770;28;20046;-55
2022/03/10 01:50:03;;;;;;;3.80;2.53;;;;;;;16.80;38.69;102358.41;5126454;28;20027;-56
2022/03/10 01:52:29;;;;;;;3.60;2.60;;;;;;;16.79;38.64;102358.53;5126779;28;20030;-54
2022/03/10 01:54:56;;;;;;;3.88;3.03;;;;;;;16.77;38.69;102350.56;5129255;27;20030;-56
2022/03/10 01:57:22;;;;;;;3.45;3.15;;;;;;;16.76;38.69;102356.94;5127797;28;20019;-57
2022/03/10 01:59:47;;;;;;;3.33;2.45;;;;;;;16.74;38.66;102356.19;5127608;28;20024;-55
2022/03/10 02:02:12;;;;;;;4.22;2.70;;;;;;;16.73;38.56;102355.31;5128588;28;20031;-54
2022/03/10 02:04:37;;;;;;;3.45;2.83;;;;;;;16.71;38.64;102354.56;5125837;28;20061;-56
2022/03/10 02:07:06;;;;;;;3.03;2.72;;;;;;;16.70;38.59;102358.22;5126133;28;20080;-54
2022/03/10 02:12:16;;;;;;;3.10;2.72;;;;;;;16.66;38.69;102348.69;5125643;28;20053;-56
2022/03/10 02:17:26;;;;;;;3.45;2.88;;;;;;;16.66;38.62;102355.91;5125805;28;20035;-55
2022/03/10 02:19:53;;;;;;;5.03;3.50;;;;;;;16.64;38.58;102350.63;5125574;28;20028;-55
2022/03/10 02:22:20;;;;;;;3.42;2.97;;;;;;;16.63;38.57;102353.44;5125891;28;20034;-55
2022/03/10 02:24:46;;;;;;;3.35;3.05;;;;;;;16.60;38.51;102354.53;5125545;28;20036;-56
2022/03/10 02:27:30;;;;;;;3.00;2.80;;;;;;;16.62;38.52;102351.75;5125523;27;20050;-55
2022/03/10 02:29:58;;;;;;;3.30;2.97;;;;;;;16.60;38.65;102356.34;5125255;28;20023;-56
2022/03/10 02:32:23;;;;;;;3.30;2.95;;;;;;;16.60;38.59;102361.72;5125480;28;20022;-56
2022/03/10 02:34:49;;;;;;;3.13;2.83;;;;;;;16.56;38.63;102361.09;5125560;28;20016;-54
2022/03/10 02:37:15;;;;;;;3.13;2.80;;;;;;;16.56;38.34;102360.25;5125746;28;20316;-54
2022/03/10 02:39:41;;;;;;;2.83;2.60;;;;;;;16.55;38.62;102355.88;5124868;28;20023;-55
2022/03/10 02:42:07;;;;;;;3.05;2.60;;;;;;;16.52;38.62;102356.94;5125313;28;20028;-55
2022/03/10 02:44:33;;;;;;;3.33;3.03;;;;;;;16.51;38.62;102360.59;5124336;28;20051;-55
2022/03/10 02:46:58;;;;;;;3.67;2.92;;;;;;;16.50;38.59;102362.44;5125480;28;20300;-55
2022/03/10 02:49:23;;;;;;;3.38;2.40;;;;;;;16.50;38.62;102364.28;5125124;28;20232;-55
2022/03/10 02:51:49;;;;;;;3.58;3.08;;;;;;;16.48;38.60;102360.84;5125170;28;20031;-55
2022/03/10 02:54:14;;;;;;;3.47;2.90;;;;;;;16.47;38.59;102354.63;5124626;28;20036;-54
2022/03/10 02:56:39;;;;;;;3.15;2.60;;;;;;;16.45;38.64;102353.88;5124771;28;20053;-55
2022/03/10 02:59:05;;;;;;;3.10;2.65;;;;;;;16.39;38.64;102342.75;5124344;28;20285;-54
2022/03/10 03:01:30;;;;;;;3.10;2.80;;;;;;;16.41;38.67;102346.19;5124852;28;20051;-56
2022/03/10 03:03:56;;;;;;;4.75;3.60;;;;;;;16.42;38.49;102353.25;5125120;28;20051;-55
2022/03/10 03:06:21;;;;;;;3.40;2.60;;;;;;;16.40;38.55;102356.06;5124967;28;20032;-56
2022/03/10 03:08:47;;;;;;;3.72;3.25;;;;;;;16.41;38.62;102351.56;5124616;28;20079;-54
2022/03/10 03:11:12;;;;;;;2.97;2.67;;;;;;;16.35;38.71;102347.50;5124835;28;20460;-52
2022/03/10 03:13:37;;;;;;;2.80;2.38;;;;;;;16.33;38.61;102349.44;5124068;28;20056;-56
2022/03/10 03:16:03;;;;;;;3.38;2.80;;;;;;;16.38;38.61;102351.78;5124541;28;20031;-55
2022/03/10 03:18:28;;;;;;;3.55;2.83;;;;;;;16.35;38.54;102352.84;5124224;28;20023;-53
2022/03/10 03:20:53;;;;;;;3.42;3.08;;;;;;;16.34;38.53;102353.84;5123830;28;20044;-55
2022/03/10 03:23:18;;;;;;;4.05;2.78;;;;;;;16.35;38.51;102360.06;5124541;28;20326;-56
2022/03/10 03:25:44;;;;;;;2.90;2.60;;;;;;;16.34;38.56;102366.41;5124289;28;20059;-56
2022/03/10 03:28:09;;;;;;;3.60;3.17;;;;;;;16.33;38.55;102364.69;5123750;28;20063;-55
2022/03/10 03:30:34;;;;;;;3.03;2.40;;;;;;;16.31;38.60;102367.53;5124226;28;20036;-55
2022/03/10 03:32:59;;;;;;;3.13;2.78;;;;;;;16.30;38.56;102364.94;5124767;28;20049;-56
2022/03/10 03:35:25;;;;;;;2.92;2.60;;;;;;;16.31;38.40;102367.53;5124860;28;20024;-52
2022/03/10 03:37:50;;;;;;;3.03;2.67;;;;;;;16.29;38.50;102364.06;5124827;28;20029;-55
2022/03/10 03:40:15;;;;;;;3.35;2.60;;;;;;;16.29;38.20;102353.34;5124356;28;20073;-55
2022/03/10 03:42:41;;;;;;;2.60;2.40;;;;;;;16.29;38.45;102365.91;5124098;28;20079;-57
2022/03/10 03:45:06;;;;;;;2.85;2.55;;;;;;;16.29;38.55;102368.59;5123732;28;20114;-54
2022/03/10 03:47:32;;;;;;;2.63;2.42;;;;;;;16.26;38.76;102372.34;5124303;28;20031;-55
2022/03/10 03:49:57;;;;;;;2.92;2.63;;;;;;;16.27;38.42;102374.09;5124280;28;20038;-56
2022/03/10 03:52:22;;;;;;;3.22;2.75;;;;;;;16.24;38.51;102371.63;5124810;28;20034;-53
2022/03/10 03:54:47;;;;;;;3.78;2.78;;;;;;;16.23;38.46;102378.81;5123930;28;20024;-54
2022/03/10 03:57:13;;;;;;;3.08;2.78;;;;;;;16.22;38.49;102376.22;5124211;28;20056;-55
2022/03/10 03:59:38;;;;;;;3.03;2.67;;;;;;;16.22;38.58;102381.59;5123789;28;20046;-56
2022/03/10 04:02:03;;;;;;;3.60;2.95;;;;;;;16.21;38.53;102387.94;5124468;28;20039;-54
2022/03/10 04:04:29;;;;;;;2.90;2.47;;;;;;;16.19;38.51;102390.75;5124088;28;20026;-55
2022/03/10 04:06:54;;;;;;;3.33;2.85;;;;;;;16.17;38.65;102390.00;5124453;28;20039;-55
2022/03/10 04:09:19;;;;;;;2.60;2.33;;;;;;;16.17;38.52;102387.31;5123837;28;20031;-55
2022/03/10 04:11:45;;;;;;;2.90;2.60;;;;;;;16.15;38.68;102389.28;5123850;28;20031;-55
2022/03/10 04:14:11;;;;;;;2.60;2.40;;;;;;;16.10;38.69;102382.50;5123595;28;20027;-56
2022/03/10 04:16:36;;;;;;;3.10;2.60;;;;;;;16.14;38.68;102386.69;5122781;28;20026;-55
2022/03/10 04:19:01;;;;;;;2.85;2.58;;;;;;;16.11;38.67;102387.78;5123495;28;20080;-54
2022/03/10 04:21:27;;;;;;;3.25;2.28;;;;;;;16.11;38.71;102389.63;5124104;28;20043;-54
2022/03/10 04:23:52;;;;;;;2.92;2.50;;;;;;;16.10;38.71;102394.13;5123788;28;20032;-54
2022/03/10 04:26:17;;;;;;;2.85;2.53;;;;;;;16.10;38.75;102396.81;5124169;28;20081;-54
2022/03/10 04:28:42;;;;;;;2.70;2.50;;;;;;;16.10;38.95;102403.97;5122737;28;20044;-54
2022/03/10 04:31:08;;;;;;;3.17;2.60;;;;;;;16.10;38.76;102410.22;5124017;28;20027;-56
2022/03/10 04:33:33;;;;;;;2.53;2.33;;;;;;;16.11;38.62;102405.72;5127983;28;20019;-54
2022/03/10 04:35:58;;;;;;;2.70;2.50;;;;;;;16.10;38.61;102410.22;5128333;28;20020;-56
2022/03/10 04:38:24;;;;;;;2.83;2.58;;;;;;;16.10;38.68;102412.91;5126443;28;20032;-55
2022/03/10 04:40:49;;;;;;;3.03;2.40;;;;;;;16.08;38.66;102409.47;5128139;28;20513;-55
2022/03/10 04:43:15;;;;;;;2.75;2.53;;;;;;;16.10;38.66;102414.72;5127591;28;20028;-55
2022/03/10 04:45:40;;;;;;;2.80;2.50;;;;;;;16.11;38.64;102413.78;5127359;28;20145;-56
2022/03/10 04:48:06;;;;;;;2.85;2.53;;;;;;;16.09;38.65;102413.84;5127737;28;20036;-54
2022/03/10 04:50:32;;;;;;;2.80;2.50;;;;;;;16.10;38.65;102412.91;5128063;28;20027;-55
2022/03/10 04:52:57;;;;;;;3.00;2.70;;;;;;;16.10;38.68;102407.53;5128225;28;20030;-56
2022/03/10 04:55:23;;;;;;;2.40;2.20;;;;;;;16.09;38.62;102402.28;5127659;28;20051;-54
2022/03/10 04:57:48;;;;;;;2.50;2.30;;;;;;;16.08;38.69;102396.06;5127167;28;20027;-55
2022/03/10 05:00:16;;;;;;;2.88;2.58;;;;;;;16.08;38.70;102396.06;5127232;28;20032;-55
2022/03/10 05:02:41;;;;;;;3.13;2.70;;;;;;;16.03;38.58;102384.81;5127701;27;20031;-55
2022/03/10 05:05:08;;;;;;;3.00;2.47;;;;;;;16.06;38.70;102403.38;5127570;28;20286;-56
2022/03/10 05:07:33;;;;;;;2.72;2.45;;;;;;;16.07;38.65;102401.53;5127560;28;20023;-54
2022/03/10 05:09:59;;;;;;;2.78;2.50;;;;;;;16.05;38.70;102406.16;5124847;28;20023;-55
2022/03/10 05:12:25;;;;;;;3.25;2.50;;;;;;;16.03;38.72;102400.91;5117028;28;20051;-55
2022/03/10 05:14:50;;;;;;;2.20;2.00;;;;;;;16.02;38.78;102396.53;5126912;28;20047;-55
2022/03/10 05:17:16;;;;;;;2.58;2.30;;;;;;;16.00;38.76;102404.66;5127487;28;20032;-52
2022/03/10 05:19:41;;;;;;;2.42;2.10;;;;;;;15.99;38.53;102399.44;5126845;28;20450;-56
2022/03/10 05:22:07;;;;;;;3.25;2.55;;;;;;;15.98;38.71;102409.31;5127571;28;20027;-54
2022/03/10 05:24:32;;;;;;;2.33;2.13;;;;;;;15.96;38.71;102411.22;5126979;28;20031;-55
2022/03/10 05:26:58;;;;;;;2.95;2.30;;;;;;;15.92;38.91;102404.38;5126743;28;20031;-56
2022/03/10 05:29:23;;;;;;;2.85;2.38;;;;;;;15.94;38.77;102413.19;5126314;28;20057;-56
2022/03/10 05:31:48;;;;;;;2.47;2.28;;;;;;;15.92;38.75;102403.50;5127321;28;20031;-56
2022/03/10 05:34:13;;;;;;;2.92;2.60;;;;;;;15.91;38.86;102416.06;5127363;28;20129;-55
2022/03/10 05:36:39;;;;;;;2.67;2.22;;;;;;;15.91;38.80;102416.06;5127018;28;20020;-54
2022/03/10 05:39:04;;;;;;;2.80;2.50;;;;;;;15.89;38.85;102411.81;5126568;28;20032;-56
2022/03/10 05:41:32;;;;;;;2.33;2.10;;;;;;;15.90;38.74;102414.38;5127525;28;20027;-56
2022/03/10 05:43:57;;;;;;;2.63;2.42;;;;;;;15.89;38.68;102415.34;5125324;28;20051;-55
2022/03/10 05:46:22;;;;;;;3.25;2.65;;;;;;;15.89;38.74;102407.31;5126841;28;20108;-54
2022/03/10 05:48:47;;;;;;;2.83;2.40;;;;;;;15.89;38.81;102409.13;5126532;28;20471;-55
2022/03/10 05:51:13;;;;;;;3.25;2.70;;;;;;;15.88;38.80;102410.94;5127023;28;20507;-57
2022/03/10 05:53:38;;;;;;;2.55;2.33;;;;;;;15.87;38.86;102416.41;5126295;28;20031;-53
2022/03/10 05:56:03;;;;;;;2.85;2.40;;;;;;;15.87;38.62;102414.59;5126811;28;20023;-55
2022/03/10 05:58:29;;;;;;;2.85;2.55;;;;;;;15.88;38.68;102412.75;5125635;28;20038;-55
2022/03/10 06:00:54;;;;;;;2.67;2.28;;;;;;;15.88;38.69;102410.94;5126405;28;20031;-54
2022/03/10 06:03:20;;;;;;;2.72;2.40;;;;;;;15.88;38.77;102415.44;5126685;28;20034;-56
2022/03/10 06:05:45;;;;;;;2.72;2.30;;;;;;;15.89;38.66;102411.81;5124714;27;20020;-53
2022/03/10 06:08:10;;;;;;;2.95;2.70;;;;;;;15.88;38.65;102418.97;5125495;28;20707;-55
2022/03/10 06:10:35;;;;;;;2.53;2.33;;;;;;;15.88;38.63;102424.34;5126115;28;20027;-55
2022/03/10 06:13:01;;;;;;;2.80;2.20;;;;;;;15.88;38.66;102428.84;5125699;28;20031;-53
2022/03/10 06:15:27;;;;;;;2.65;2.38;;;;;;;15.89;38.58;102438.63;5125605;28;20042;-55
2022/03/10 06:17:52;;;;;;;2.97;2.00;;;;;;;15.91;38.62;102444.72;5126494;28;20031;-57
2022/03/10 06:20:17;;;;;;;2.60;2.40;;;;;;;15.91;38.47;102444.72;5129304;28;20043;-56
2022/03/10 06:22:43;;;;;;;2.35;2.10;;;;;;;15.91;38.48;102442.91;5129680;28;20099;-55
2022/03/10 06:25:09;;;;;;;2.60;2.33;;;;;;;15.90;38.49;102440.34;5128889;28;20019;-55
2022/03/10 06:27:35;;;;;;;2.60;2.28;;;;;;;15.93;38.45;102440.97;5126518;28;20057;-51
2022/03/10 06:30:00;;;;;;;2.90;2.53;;;;;;;15.94;38.40;102441.84;5125612;28;20027;-54
2022/03/10 06:32:25;;;;;;;2.88;2.58;;;;;;;15.94;38.47;102442.69;5126351;28;20032;-54
2022/03/10 06:34:53;;;;;;;2.67;2.42;;;;;;;15.93;38.30;102440.13;5124831;28;20096;-54
2022/03/10 06:37:19;;;;;;;3.70;2.50;;;;;;;15.98;38.38;102444.19;5126243;28;20027;-50
2022/03/10 06:39:44;;;;;;;3.10;2.53;;;;;;;15.98;38.22;102443.31;5125355;28;20028;-55
2022/03/10 06:42:10;;;;;;;3.78;2.75;;;;;;;16.00;38.11;102446.72;5124779;28;20036;-55
2022/03/10 06:44:36;;;;;;;3.63;3.33;;;;;;;16.05;38.26;102449.06;5124285;28;20035;-56
2022/03/10 06:47:05;;;;;;;4.20;3.50;;;;;;;16.09;38.33;102456.78;5124048;28;20016;-57
2022/03/10 06:49:31;;;;;;;4.65;3.83;;;;;;;16.13;38.24;102455.59;5124511;28;20023;-55
2022/03/10 06:51:56;;;;;;;4.57;4.00;;;;;;;16.15;38.28;102453.66;5125178;28;20400;-57
2022/03/10 06:54:22;;;;;;;4.40;4.00;;;;;;;16.17;38.21;102453.56;5122520;28;20051;-57
2022/03/10 06:56:47;;;;;;;4.28;3.80;;;;;;;16.22;38.18;102457.59;5124899;28;20057;-55
2022/03/10 06:59:12;;;;;;;4.47;3.70;;;;;;;16.27;38.11;102459.97;5124104;28;20056;-57
2022/03/10 07:01:38;;;;;;;4.60;4.20;;;;;;;16.30;38.13;102461.56;5125272;28;20038;-57
2022/03/10 07:04:03;;;;;;;5.53;4.47;;;;;;;16.34;38.19;102466.56;5125280;28;20039;-57
2022/03/10 07:06:28;;;;;;;6.32;4.82;;;;;;;16.37;38.21;102462.81;5124852;28;20031;-57
2022/03/10 07:08:54;;;;;;;4.32;3.92;;;;;;;16.32;38.05;102441.69;5124595;28;20028;-57
2022/03/10 07:11:19;;;;;;;4.90;4.40;;;;;;;16.47;38.13;102466.53;5123240;28;20034;-56
2022/03/10 07:13:45;;;;;;;4.70;4.15;;;;;;;16.50;38.22;102460.94;5123157;27;20034;-53
2022/03/10 07:16:11;;;;;;;4.97;4.47;;;;;;;16.54;38.08;102467.78;5124943;28;20028;-57
2022/03/10 07:18:37;;;;;;;4.53;4.03;;;;;;;16.55;38.17;102464.13;5124335;28;20020;-57
2022/03/10 07:21:04;;;;;;;4.20;3.70;;;;;;;16.60;38.24;102466.47;5124368;28;20042;-55
2022/03/10 07:23:29;;;;;;;4.18;3.33;;;;;;;16.64;38.18;102466.09;5124252;28;20496;-57
2022/03/10 07:25:54;;;;;;;4.25;3.60;;;;;;;16.65;38.30;102458.91;5124544;28;20038;-57
2022/03/10 07:28:19;;;;;;;4.28;3.88;;;;;;;16.72;38.09;102471.78;5124040;28;20027;-58
2022/03/10 07:30:45;;;;;;;4.10;3.47;;;;;;;16.78;38.12;102465.13;5113124;28;20027;-58
2022/03/10 07:33:10;;;;;;;5.65;4.03;;;;;;;16.83;38.04;102460.25;5115273;28;20028;-57
2022/03/10 07:35:36;;;;;;;4.43;3.72;;;;;;;16.95;38.03;102462.00;5110710;28;20024;-57
2022/03/10 07:38:01;;;;;;;5.38;3.55;;;;;;;17.10;37.89;102459.94;5114439;28;20090;-57
2022/03/10 07:40:26;;;;;;;4.63;3.85;;;;;;;17.23;37.80;102454.47;5122946;28;20083;-56
2022/03/10 07:42:52;;;;;;;6.25;3.72;;;;;;;17.32;37.45;102455.56;5123194;28;20087;-56
2022/03/10 07:45:17;;;;;;;4.35;3.60;;;;;;;17.41;37.29;102460.22;5123223;28;20024;-57
2022/03/10 07:47:42;;;;;;;7.05;4.63;;;;;;;17.52;37.11;102462.94;5123542;28;20028;-57
2022/03/10 07:50:09;;;;;;;4.72;3.97;;;;;;;17.57;37.01;102466.09;5123501;28;20049;-57
2022/03/10 07:52:34;;;;;;;4.90;4.05;;;;;;;17.62;37.01;102465.72;5123686;28;20041;-56
2022/03/10 07:54:59;;;;;;;4.25;3.50;;;;;;;17.72;37.01;102458.66;5122087;28;20019;-56
2022/03/10 07:57:25;;;;;;;4.13;3.50;;;;;;;17.86;36.73;102457.56;5123073;28;20031;-57
2022/03/10 07:59:51;;;;;;;4.65;3.47;;;;;;;18.02;36.63;102451.81;5122458;28;20055;-57
2022/03/10 08:02:17;;;;;;;4.60;3.40;;;;;;;18.19;36.46;102459.34;5123565;28;20024;-57
2022/03/10 08:04:43;;;;;;;4.28;3.38;;;;;;;18.36;35.93;102450.72;5123521;28;20464;-55
2022/03/10 08:07:08;;;;;;;4.60;3.55;;;;;;;18.48;35.75;102447.03;5123586;28;20019;-56
2022/03/10 08:09:34;;;;;;;5.13;3.50;;;;;;;18.57;35.71;102447.22;5115488;28;20046;-57
2022/03/10 08:11:59;;;;;;;3.95;3.47;;;;;;;18.62;35.52;102443.16;5122750;28;20038;-55
2022/03/10 08:14:24;;;;;;;4.07;3.40;;;;;;;18.68;35.33;102439.09;5122905;28;20055;-57
2022/03/10 08:16:50;;;;;;;5.25;3.67;;;;;;;18.83;35.36;102437.81;5123370;28;20291;-57
2022/03/10 08:19:16;;;;;;;3.78;3.10;;;;;;;19.12;34.90;102434.47;5123532;28;20035;-54
2022/03/10 08:21:41;;;;;;;3.22;2.83;;;;;;;19.55;34.42;102428.00;5108036;28;20044;-56
2022/03/10 08:24:07;;;;;;;4.65;3.22;;;;;;;20.07;33.88;102436.84;5115709;28;20036;-56
2022/03/10 08:26:32;;;;;;;3.88;3.05;;;;;;;20.60;32.94;102433.78;5109453;28;20118;-56
2022/03/10 08:28:57;;;;;;;5.00;3.10;;;;;;;21.11;32.11;102443.38;5102928;28;20024;-56
2022/03/10 08:31:23;;;;;;;4.00;3.42;;;;;;;21.59;31.56;102442.41;5107894;28;20028;-57
2022/03/10 08:33:50;;;;;;;3.45;2.50;;;;;;;21.89;30.64;102442.13;5115409;28;20020;-55
2022/03/10 08:36:16;;;;;;;4.05;3.03;;;;;;;22.09;30.23;102437.44;5109707;28;20027;-57
2022/03/10 08:38:41;;;;;;;4.05;3.15;;;;;;;22.15;30.14;102438.72;5111558;28;20028;-54
2022/03/10 08:41:06;;;;;;;3.83;2.90;;;;;;;22.24;30.27;102435.06;5112582;28;20065;-55
2022/03/10 08:43:32;;;;;;;3.83;3.10;;;;;;;22.40;29.98;102429.81;5114223;28;20216;-57
2022/03/10 08:45:58;;;;;;;3.42;2.85;;;;;;;22.59;29.48;102426.09;5106436;28;20044;-57
2022/03/10 08:48:24;;;;;;;4.93;3.25;;;;;;;22.93;28.98;102428.06;5115370;28;20047;-57
2022/03/10 08:50:49;;;;;;;5.28;3.55;;;;;;;23.27;28.39;102417.28;5114399;28;20034;-58
2022/03/10 08:53:14;;;;;;;4.68;3.50;;;;;;;23.64;27.98;102416.09;5109292;28;20024;-58
2022/03/10 08:55:40;;;;;;;4.18;3.15;;;;;;;24.02;26.94;102413.88;5109281;28;20024;-57
2022/03/10 08:58:05;;;;;;;5.25;3.47;;;;;;;24.38;27.02;102411.75;5104728;28;20054;-57
2022/03/10 09:00:30;;;;;;;5.88;3.20;;;;;;;24.70;26.52;102410.91;5106851;28;20036;-56
2022/03/10 09:02:57;;;;;;;5.68;4.45;;;;;;;24.93;25.93;102409.19;5105179;28;20060;-56
2022/03/10 09:05:22;;;;;;;5.95;4.13;;;;;;;25.22;25.56;102404.22;5101214;28;20048;-58
2022/03/10 09:07:47;;;;;;;7.18;4.35;;;;;;;25.39;25.13;102401.25;5109844;28;20395;-55
2022/03/10 09:10:12;;;;;;;6.90;4.22;;;;;;;25.57;24.96;102394.72;5103157;28;20515;-58
2022/03/10 09:12:39;;;;;;;6.55;4.20;;;;;;;25.75;24.50;102395.31;5120221;28;20027;-57
2022/03/10 09:15:05;;;;;;;5.95;3.85;;;;;;;25.93;24.14;102397.81;5120018;28;20085;-57
2022/03/10 09:17:30;;;;;;;5.97;4.00;;;;;;;26.09;23.97;102389.53;5119384;28;20041;-57
2022/03/10 09:19:56;;;;;;;6.63;4.07;;;;;;;26.24;23.72;102394.19;5124523;28;20015;-58
2022/03/10 09:22:22;;;;;;;4.88;3.60;;;;;;;26.40;23.26;102396.78;5119047;28;20536;-57
2022/03/10 09:24:47;;;;;;;6.55;4.18;;;;;;;26.53;23.24;102390.75;5120981;28;20116;-57
2022/03/10 09:27:13;;;;;;;5.22;3.95;;;;;;;26.70;23.05;102392.28;5120343;28;20038;-57
2022/03/10 09:29:38;;;;;;;5.30;3.80;;;;;;;26.83;22.79;102389.78;5110620;28;20024;-57
2022/03/10 09:32:03;;;;;;;5.70;3.90;;;;;;;26.98;22.44;102387.06;5104241;28;20042;-57
2022/03/10 09:34:29;;;;;;;5.75;3.92;;;;;;;27.08;22.29;102386.78;5104768;28;20248;-57
2022/03/10 09:36:54;;;;;;;4.13;3.50;;;;;;;27.18;21.80;102384.66;5105799;28;20043;-57
2022/03/10 09:39:19;;;;;;;6.32;3.80;;;;;;;27.27;22.09;102379.94;5117375;28;20016;-57
2022/03/10 09:41:45;;;;;;;4.88;3.70;;;;;;;27.35;22.06;102377.94;5125825;28;20024;-57
2022/03/10 09:44:16;;;;;;;4.75;3.85;;;;;;;27.47;21.91;102381.06;5124482;28;20016;-58
2022/03/10 09:46:43;;;;;;;3.97;3.03;;;;;;;27.56;21.44;102379.06;5124918;28;20450;-57
2022/03/10 09:49:09;;;;;;;4.75;3.90;;;;;;;27.60;21.67;102383.94;5118872;28;20073;-57
2022/03/10 09:51:34;;;;;;;4.60;3.20;;;;;;;27.67;21.45;102390.34;5121760;28;20027;-57
2022/03/10 09:53:59;;;;;;;3.80;3.20;;;;;;;27.73;21.39;102376.97;5123975;28;20011;-57
2022/03/10 09:56:26;;;;;;;4.28;3.28;;;;;;;27.76;21.22;102382.06;5125475;28;20027;-57
2022/03/10 09:58:51;;;;;;;4.05;2.85;;;;;;;27.78;21.57;102374.50;5124281;28;20127;-57
2022/03/10 10:01:16;;;;;;;3.63;2.92;;;;;;;27.61;21.51;102371.13;5125228;28;20015;-57
2022/03/10 10:03:42;;;;;;;5.32;3.30;;;;;;;27.10;21.99;102379.28;5111812;28;20496;-57
2022/03/10 10:06:07;;;;;;;5.07;3.10;;;;;;;26.38;22.61;102374.31;5117859;28;20024;-57
2022/03/10 10:08:34;;;;;;;4.95;3.13;;;;;;;25.64;23.54;102376.63;5107869;28;20034;-57
2022/03/10 10:11:00;;;;;;;5.05;3.03;;;;;;;24.93;24.37;102375.66;5114056;28;20061;-57
2022/03/10 10:13:42;;;;;;;5.28;3.75;;;;;;;24.31;25.08;102370.78;5120523;28;20566;-56
2022/03/10 10:16:11;;;;;;;4.93;3.10;;;;;;;23.79;25.77;102375.59;5111698;28;20036;-57
2022/03/10 10:18:39;;;;;;;5.32;3.45;;;;;;;23.37;26.33;102377.31;5108224;28;20038;-57
2022/03/10 10:21:05;;;;;;;4.63;3.78;;;;;;;23.04;26.95;102367.28;5109202;28;20048;-56
2022/03/10 10:23:32;;;;;;;4.38;3.50;;;;;;;22.75;26.95;102363.00;5114790;27;20046;-56
2022/03/10 10:26:00;;;;;;;6.00;3.60;;;;;;;22.49;27.78;102364.84;5116652;28;20486;-57
2022/03/10 10:28:27;;;;;;;4.57;3.20;;;;;;;22.27;28.02;102364.34;5102862;28;20040;-55
2022/03/10 10:31:17;;;;;;;4.32;3.28;;;;;;;22.07;28.27;102368.16;5108463;28;20071;-57
2022/03/10 10:33:54;;;;;;;4.85;3.38;;;;;;;21.91;28.54;102361.56;5098016;28;20047;-56
2022/03/10 10:36:24;;;;;;;5.15;3.78;;;;;;;21.77;28.91;102359.41;5113144;28;20376;-57
2022/03/10 10:38:51;;;;;;;6.82;4.20;;;;;;;21.64;29.15;102364.31;5113463;28;20044;-55
2022/03/10 10:41:21;;;;;;;4.15;3.53;;;;;;;21.53;29.11;102364.53;5109343;27;20042;-56
2022/03/10 10:43:49;;;;;;;5.22;3.50;;;;;;;21.41;29.65;102359.31;5110265;28;20032;-54
2022/03/10 10:46:22;;;;;;;4.30;3.88;;;;;;;21.34;29.73;102358.22;5115121;28;20114;-57
2022/03/10 10:48:47;;;;;;;4.63;3.58;;;;;;;21.26;29.72;102359.94;5111898;28;20020;-57
2022/03/10 10:51:13;;;;;;;4.45;3.33;;;;;;;21.18;29.92;102350.69;5124338;28;20062;-56
2022/03/10 10:53:39;;;;;;;4.53;3.22;;;;;;;21.08;30.04;102343.63;5124556;28;20019;-58
2022/03/10 10:56:05;;;;;;;4.20;3.10;;;;;;;21.04;30.40;102344.94;5124621;28;20777;-55
2022/03/10 10:58:31;;;;;;;4.47;3.67;;;;;;;20.97;30.54;102348.22;5124115;28;20023;-56
2022/03/10 11:00:57;;;;;;;4.45;3.60;;;;;;;20.93;30.70;102349.50;5123920;28;20035;-58
2022/03/10 11:03:25;;;;;;;4.10;3.35;;;;;;;20.87;30.65;102339.28;5124736;28;20027;-58
2022/03/10 11:05:52;;;;;;;4.00;3.20;;;;;;;20.82;31.09;102344.28;5124822;28;20023;-58
2022/03/10 11:08:23;;;;;;;4.88;3.30;;;;;;;20.79;31.23;102336.47;5124423;28;20543;-58
2022/03/10 11:10:48;;;;;;;3.92;3.08;;;;;;;20.74;31.27;102336.06;5121736;28;20031;-58
2022/03/10 11:13:14;;;;;;;4.72;3.10;;;;;;;20.71;31.20;102333.63;5118519;28;20039;-59
2022/03/10 11:15:41;;;;;;;3.95;3.25;;;;;;;20.68;31.47;102329.38;5123795;28;20036;-58
2022/03/10 11:18:09;;;;;;;5.30;3.67;;;;;;;20.67;32.06;102330.38;5122483;28;20062;-57
2022/03/10 11:20:34;;;;;;;3.47;2.80;;;;;;;20.63;32.14;102320.84;5112149;28;20062;-58
2022/03/10 11:23:11;;;;;;;4.30;2.97;;;;;;;20.64;32.30;102337.91;5103990;28;20043;-56